Pagina principale
METAR-TAF:

METAR-TAF

Aeroporti :

Teodo, Montenegro

latitudine: 42-24N, longitudine: 018-44E, altezza: 5 m

Osservazione

Il bollettino è stato emesso 4 ore e 18 minuti fa, alle 19:00 UTC
Vento 1 kt da direzioni variabili
Temperature 14°C
Umidità 88%
Pressione 1011 hPa
Visibilità 10 km o più
Poco nuvoloso ad un'altezza di 3000 ft
Nubi sparse ad un'altezza di 4600 ft

METAR: LYTV 151900Z VRB01KT 9999 FEW030 SCT046 14/12 Q1011 NOSIG

Ora: 01:18 (23:18 UTC)

Previsione

Il bollettino è stato emesso 6 ore e 18 minuti fa, alle 17:00 UTC
Previsione valida dal 15 alle 18 UTC al 16 alle 18 UTC
Vento 7 kt da sud/sud-est
Visibilità 10 km o più
Poco nuvoloso ad un'altezza di 1500 ft
Nubi sparse ad un'altezza di 3000 ft
Nuvoloso ad un'altezza di 6000 ft

TAF: LYTV 151700Z 1518/1618 15007KT 9999 FEW015 SCT030 BKN060 TX18/1613Z TN12/1604Z

Osservazioni e previsioni meteorologiche di più di 4000 aeroporti (messaggi METAR e TAF).

Le stazioni disponibili sono rappresentate dai dischi gialli e rossi sulla carta.

Puntare il mouse per vedere il nome della stazione.

Clicca sopra per visualizzare le osservazioni e previsioni meteorologiche.

Per cambiare la mappa : fare clic sui pulsanti verdi con una croce nera per ingrandire, il pulsante verde con un trattino per diminuire, o sulla freccia verde per le mappe adiacenti.


METAR-TAF: